createdAt,value
2023-02-02T00:01:35.694Z,3.30
2023-02-02T00:04:38.803Z,2.05
2023-02-02T00:07:41.304Z,4.07
2023-02-02T00:10:45.352Z,4.95
2023-02-02T00:16:53.071Z,2.53
2023-02-02T00:19:55.632Z,2.75
2023-02-02T00:22:58.736Z,1.52
2023-02-02T00:26:01.314Z,2.97
2023-02-02T00:29:05.538Z,2.22
2023-02-02T00:32:08.077Z,3.03
2023-02-02T00:35:11.186Z,2.62
2023-02-02T00:38:14.336Z,4.18
2023-02-02T00:41:17.580Z,3.42
2023-02-02T00:44:38.590Z,1.97
2023-02-02T00:47:50.512Z,3.30
2023-02-02T00:50:53.791Z,3.20
2023-02-02T00:53:56.924Z,2.83
2023-02-02T00:56:59.602Z,3.83
2023-02-02T01:00:04.210Z,4.85
2023-02-02T01:03:07.127Z,3.03
2023-02-02T01:06:10.631Z,3.35
2023-02-02T01:09:13.327Z,3.20
2023-02-02T01:12:16.546Z,2.10
2023-02-02T01:15:19.631Z,2.47
2023-02-02T01:18:22.804Z,4.20
2023-02-02T01:24:29.353Z,3.05
2023-02-02T01:27:32.005Z,2.10
2023-02-02T01:30:35.114Z,2.47
2023-02-02T01:33:38.425Z,2.43
2023-02-02T01:36:41.626Z,1.85
2023-02-02T01:39:44.273Z,1.60
2023-02-02T01:42:47.353Z,2.28
2023-02-02T01:45:51.337Z,1.87
2023-02-02T01:49:14.556Z,2.65
2023-02-02T01:52:20.896Z,4.62
2023-02-02T01:55:26.725Z,3.30
2023-02-02T01:58:34.459Z,1.25
2023-02-02T02:01:37.601Z,2.80
2023-02-02T02:04:42.393Z,2.87
2023-02-02T02:07:48.410Z,2.00
2023-02-02T02:10:51.740Z,0.88
2023-02-02T02:14:15.976Z,2.65
2023-02-02T02:17:44.897Z,0.50
2023-02-02T02:21:32.301Z,1.55
2023-02-02T02:25:12.486Z,1.80
2023-02-02T02:28:34.693Z,1.10
2023-02-02T02:31:46.369Z,1.75
2023-02-02T02:35:29.142Z,1.52
2023-02-02T02:38:44.239Z,0.80
2023-02-02T02:41:51.617Z,0.93
2023-02-02T02:44:56.567Z,0.70
2023-02-02T02:47:59.932Z,0.70
2023-02-02T02:51:29.910Z,1.10
2023-02-02T02:54:45.665Z,0.70
2023-02-02T02:58:09.931Z,2.12
2023-02-02T03:01:30.270Z,0.85
2023-02-02T03:05:19.835Z,1.15
2023-02-02T03:08:38.000Z,1.17
2023-02-02T03:11:41.377Z,2.22
2023-02-02T03:14:44.267Z,2.25
2023-02-02T03:17:49.312Z,1.42
2023-02-02T03:20:52.136Z,2.97
2023-02-02T03:23:54.995Z,1.12
2023-02-02T03:26:57.977Z,3.30
2023-02-02T03:30:01.192Z,1.30
2023-02-02T03:33:05.448Z,2.70
2023-02-02T03:36:08.968Z,2.25
2023-02-02T03:42:14.563Z,1.85
2023-02-02T03:45:17.943Z,1.85
2023-02-02T03:48:20.728Z,1.92
2023-02-02T03:51:23.603Z,2.45
2023-02-02T03:54:27.551Z,3.40
2023-02-02T03:57:30.816Z,4.72
2023-02-02T04:00:33.903Z,3.75
2023-02-02T04:03:37.112Z,1.60
2023-02-02T04:06:39.927Z,2.60
2023-02-02T04:09:43.009Z,1.45
2023-02-02T04:12:45.632Z,1.85
2023-02-02T04:15:56.057Z,1.67
2023-02-02T04:18:58.636Z,1.65
2023-02-02T04:22:01.750Z,3.47
2023-02-02T04:25:04.673Z,1.00
2023-02-02T04:31:10.178Z,1.85
2023-02-02T04:34:13.302Z,4.12
2023-02-02T04:37:15.847Z,4.47
2023-02-02T04:40:19.394Z,3.80
2023-02-02T04:43:21.939Z,1.33
2023-02-02T04:46:26.613Z,1.42
2023-02-02T04:49:29.162Z,1.67
2023-02-02T04:52:32.344Z,2.10
2023-02-02T04:55:38.922Z,2.67
2023-02-02T04:58:45.036Z,2.20
2023-02-02T05:04:51.431Z,2.17
2023-02-02T05:07:54.077Z,1.80
2023-02-02T05:10:57.184Z,3.40
2023-02-02T05:13:59.765Z,2.30
2023-02-02T05:17:02.905Z,2.15
2023-02-02T05:20:05.706Z,2.22
2023-02-02T05:23:08.789Z,2.10
2023-02-02T05:26:22.331Z,3.33
2023-02-02T05:29:25.675Z,2.05
2023-02-02T05:32:31.326Z,1.77
2023-02-02T05:35:34.530Z,2.85
2023-02-02T05:38:37.137Z,1.93
2023-02-02T05:41:40.304Z,2.12
2023-02-02T05:44:42.843Z,3.00
2023-02-02T05:47:45.989Z,2.05
2023-02-02T05:51:05.533Z,1.70
2023-02-02T05:54:08.931Z,3.50
2023-02-02T05:57:12.186Z,2.87
2023-02-02T06:00:15.703Z,1.45
2023-02-02T06:03:18.633Z,2.25
2023-02-02T06:06:21.478Z,1.58
2023-02-02T06:09:25.286Z,2.15
2023-02-02T06:12:28.292Z,3.47
2023-02-02T06:15:33.002Z,3.47
2023-02-02T06:18:36.869Z,4.87
2023-02-02T06:21:39.697Z,5.10
2023-02-02T06:24:42.802Z,1.40
2023-02-02T06:27:46.341Z,1.83
2023-02-02T06:33:56.860Z,2.35
2023-02-02T06:36:59.692Z,2.03
2023-02-02T06:40:07.392Z,1.65
2023-02-02T06:43:11.557Z,2.28
2023-02-02T06:46:15.109Z,1.80
2023-02-02T06:49:18.004Z,4.78
2023-02-02T06:52:20.895Z,2.75
2023-02-02T06:55:23.989Z,3.92
2023-02-02T06:58:27.997Z,4.47
2023-02-02T07:01:30.965Z,2.40
2023-02-02T07:04:33.836Z,4.55
2023-02-02T07:07:36.728Z,1.67
2023-02-02T07:11:14.235Z,1.45
2023-02-02T07:14:05.075Z,2.92
2023-02-02T07:17:07.993Z,2.85
2023-02-02T07:20:11.483Z,2.80
2023-02-02T07:26:19.330Z,2.80
2023-02-02T07:29:22.339Z,2.78
2023-02-02T07:32:26.513Z,2.12
2023-02-02T07:35:29.412Z,0.95
2023-02-02T07:38:34.636Z,3.05
2023-02-02T07:41:37.698Z,3.58
2023-02-02T07:44:49.243Z,2.47
2023-02-02T07:47:59.533Z,5.12
2023-02-02T07:51:06.234Z,5.43
2023-02-02T07:54:09.746Z,3.25
2023-02-02T07:57:13.828Z,2.97
2023-02-02T08:00:17.135Z,2.53
2023-02-02T08:03:21.010Z,3.25
2023-02-02T08:06:28.527Z,1.98
2023-02-02T08:09:33.080Z,2.55
2023-02-02T08:12:35.606Z,2.60
2023-02-02T08:15:38.726Z,3.45
2023-02-02T08:18:42.280Z,3.03
2023-02-02T08:21:45.477Z,5.97
2023-02-02T08:24:48.167Z,2.37
2023-02-02T08:27:55.598Z,2.12
2023-02-02T08:31:04.581Z,1.85
2023-02-02T08:34:07.852Z,1.50
2023-02-02T08:37:10.559Z,1.23
2023-02-02T08:40:13.810Z,2.28
2023-02-02T08:43:17.348Z,2.00
2023-02-02T08:46:21.587Z,2.42
2023-02-02T08:49:25.141Z,3.92
2023-02-02T08:52:28.408Z,1.73
2023-02-02T08:55:33.674Z,2.87
2023-02-02T08:58:37.400Z,1.12
2023-02-02T09:01:40.107Z,6.03
2023-02-02T09:04:45.690Z,3.72
2023-02-02T09:07:49.330Z,3.80
2023-02-02T09:10:56.865Z,3.83
2023-02-02T09:14:02.216Z,2.95
2023-02-02T09:17:05.402Z,4.85
2023-02-02T09:20:08.417Z,5.60
2023-02-02T09:23:12.801Z,3.17
2023-02-02T09:26:17.493Z,3.75
2023-02-02T09:29:21.378Z,1.65
2023-02-02T09:32:23.992Z,4.55
2023-02-02T09:38:30.257Z,2.08
2023-02-02T09:44:58.069Z,4.05
2023-02-02T09:48:07.476Z,3.50
2023-02-02T09:51:15.993Z,3.45
2023-02-02T09:54:50.244Z,4.60
2023-02-02T09:58:01.759Z,5.30
2023-02-02T10:01:10.320Z,3.03
2023-02-02T10:04:24.833Z,1.95
2023-02-02T10:07:35.129Z,3.33
2023-02-02T10:10:43.536Z,4.87
2023-02-02T10:13:48.898Z,3.08
2023-02-02T10:16:54.967Z,2.22
2023-02-02T10:20:06.711Z,2.25
2023-02-02T10:23:40.289Z,2.92
2023-02-02T10:26:48.740Z,1.85
2023-02-02T10:30:00.189Z,3.50
2023-02-02T10:33:03.561Z,6.18
2023-02-02T10:36:22.807Z,3.10
2023-02-02T10:40:04.357Z,3.65
2023-02-02T10:43:52.538Z,3.90
2023-02-02T10:46:58.589Z,4.47
2023-02-02T10:50:13.562Z,2.87
2023-02-02T10:53:17.046Z,3.50
2023-02-02T10:56:26.741Z,4.93
2023-02-02T10:59:59.602Z,2.17
2023-02-02T11:03:04.819Z,3.05
2023-02-02T11:06:27.624Z,3.55
2023-02-02T11:09:39.663Z,3.10
2023-02-02T11:12:50.124Z,4.53
2023-02-02T11:16:15.621Z,1.73
2023-02-02T11:19:19.724Z,2.80
2023-02-02T11:22:28.189Z,2.22
2023-02-02T11:25:33.972Z,2.60
2023-02-02T11:28:37.427Z,3.33
2023-02-02T11:31:40.370Z,3.78
2023-02-02T11:34:43.640Z,2.75
2023-02-02T11:37:57.490Z,2.40
2023-02-02T11:41:11.124Z,2.83
2023-02-02T11:44:40.396Z,1.90
2023-02-02T11:47:45.733Z,1.87
2023-02-02T11:50:51.466Z,2.00
2023-02-02T11:54:17.657Z,4.45
2023-02-02T11:57:25.537Z,3.45
2023-02-02T12:00:28.802Z,5.28
2023-02-02T12:03:38.188Z,2.62
2023-02-02T12:06:41.011Z,4.50
2023-02-02T12:09:44.448Z,2.67
2023-02-02T12:12:56.251Z,3.97
2023-02-02T12:16:28.292Z,4.07
2023-02-02T12:20:02.447Z,2.17
2023-02-02T12:23:14.632Z,4.32
2023-02-02T12:26:30.756Z,2.17
2023-02-02T12:30:31.129Z,2.37
2023-02-02T12:33:33.612Z,4.12
2023-02-02T12:37:04.475Z,2.87
2023-02-02T12:40:22.398Z,3.33
2023-02-02T12:43:40.952Z,3.15
2023-02-02T12:46:57.112Z,1.83
2023-02-02T12:50:31.225Z,1.92
2023-02-02T12:54:34.782Z,3.33
2023-02-02T12:57:32.807Z,3.78
2023-02-02T13:01:00.044Z,2.65
2023-02-02T13:08:06.248Z,6.12
2023-02-02T13:11:32.902Z,4.47
2023-02-02T13:14:38.280Z,3.72
2023-02-02T13:17:55.093Z,3.53
2023-02-02T13:21:05.130Z,7.12
2023-02-02T13:24:15.991Z,7.05
2023-02-02T13:27:21.213Z,4.72
2023-02-02T13:30:39.478Z,2.40
2023-02-02T13:33:48.500Z,4.20
2023-02-02T13:37:17.163Z,5.03
2023-02-02T13:40:32.681Z,2.92
2023-02-02T13:43:42.588Z,4.43
2023-02-02T13:46:52.889Z,3.40
2023-02-02T13:50:05.778Z,5.90
2023-02-02T13:53:29.738Z,4.05
2023-02-02T13:56:52.051Z,6.20
2023-02-02T14:00:19.185Z,4.60
2023-02-02T14:03:29.833Z,2.83
2023-02-02T14:06:56.174Z,5.68
2023-02-02T14:09:59.571Z,4.65
2023-02-02T14:13:32.983Z,2.30
2023-02-02T14:19:44.314Z,4.22
2023-02-02T14:22:50.869Z,3.45
2023-02-02T14:26:19.740Z,4.50
2023-02-02T14:29:31.959Z,5.95
2023-02-02T14:32:42.794Z,2.28
2023-02-02T14:35:45.861Z,3.45
2023-02-02T14:39:00.101Z,2.97
2023-02-02T14:43:03.794Z,5.37
2023-02-02T14:46:15.829Z,6.82
2023-02-02T14:49:24.518Z,9.45
2023-02-02T14:52:27.346Z,6.35
2023-02-02T14:58:44.115Z,3.22
2023-02-02T15:01:59.403Z,2.33
2023-02-02T15:05:38.760Z,3.53
2023-02-02T15:08:41.963Z,4.25
2023-02-02T15:12:01.612Z,4.73
2023-02-02T15:15:17.713Z,4.43
2023-02-02T15:18:33.208Z,4.18
2023-02-02T15:21:40.638Z,3.60
2023-02-02T15:24:46.066Z,2.83
2023-02-02T15:28:09.128Z,4.30
2023-02-02T15:31:11.884Z,3.78
2023-02-02T15:34:24.870Z,4.53
2023-02-02T15:37:40.086Z,3.17
2023-02-02T15:40:44.215Z,2.95
2023-02-02T15:46:51.041Z,5.75
2023-02-02T15:49:53.635Z,4.65
2023-02-02T15:52:56.966Z,5.90
2023-02-02T15:56:00.054Z,5.32
2023-02-02T15:59:20.293Z,7.40
2023-02-02T16:02:36.610Z,4.45
2023-02-02T16:05:39.691Z,7.40
2023-02-02T16:08:42.384Z,6.60
2023-02-02T16:11:47.679Z,3.60
2023-02-02T16:14:55.360Z,5.70
2023-02-02T16:18:02.838Z,2.92
2023-02-02T16:21:15.978Z,6.03
2023-02-02T16:27:29.101Z,4.45
2023-02-02T16:30:39.023Z,3.85
2023-02-02T16:33:43.484Z,5.35
2023-02-02T16:37:05.336Z,3.92
2023-02-02T16:40:27.452Z,2.58
2023-02-02T16:43:30.939Z,6.45
2023-02-02T16:46:47.310Z,4.12
2023-02-02T16:49:50.750Z,2.53
2023-02-02T16:53:03.820Z,3.95
2023-02-02T16:56:09.042Z,4.53
2023-02-02T16:59:25.404Z,4.28
2023-02-02T17:02:40.835Z,5.28
2023-02-02T17:05:53.553Z,4.75
2023-02-02T17:08:56.746Z,3.53
2023-02-02T17:12:32.815Z,3.37
2023-02-02T17:15:37.124Z,5.72
2023-02-02T17:18:40.078Z,6.85
2023-02-02T17:21:43.373Z,8.85
2023-02-02T17:24:48.355Z,3.67
2023-02-02T17:27:51.948Z,5.97
2023-02-02T17:31:02.244Z,6.28
2023-02-02T17:34:16.390Z,6.00
2023-02-02T17:37:18.998Z,4.50
2023-02-02T17:40:23.830Z,8.45
2023-02-02T17:43:27.222Z,3.28
2023-02-02T17:46:33.630Z,4.05
2023-02-02T17:49:36.296Z,7.18
2023-02-02T17:52:39.870Z,5.57
2023-02-02T17:55:44.313Z,4.93
2023-02-02T17:58:47.393Z,3.83
2023-02-02T18:01:50.768Z,5.07
2023-02-02T18:04:53.956Z,5.05
2023-02-02T18:07:56.459Z,3.77
2023-02-02T18:10:59.872Z,3.83
2023-02-02T18:14:02.678Z,2.90
2023-02-02T18:17:05.972Z,5.12
2023-02-02T18:20:10.063Z,4.75
2023-02-02T18:23:13.679Z,5.65
2023-02-02T18:26:18.817Z,5.90
2023-02-02T18:29:21.957Z,6.57
2023-02-02T18:32:25.053Z,3.47
2023-02-02T18:35:28.528Z,6.18
2023-02-02T18:38:31.180Z,4.80
2023-02-02T18:41:34.448Z,5.25
2023-02-02T18:44:38.489Z,4.13
2023-02-02T18:47:41.733Z,8.05
2023-02-02T18:50:44.310Z,9.20
2023-02-02T18:53:48.138Z,11.35
2023-02-02T18:56:50.702Z,5.60
2023-02-02T18:59:54.005Z,4.90
2023-02-02T19:02:56.573Z,5.77
2023-02-02T19:06:29.131Z,4.10
2023-02-02T19:09:32.019Z,4.70
2023-02-02T19:12:35.171Z,3.20
2023-02-02T19:15:39.414Z,4.73
2023-02-02T19:18:42.985Z,5.87
2023-02-02T19:21:45.662Z,6.53
2023-02-02T19:24:50.052Z,5.93
2023-02-02T19:27:52.714Z,6.90
2023-02-02T19:30:58.524Z,7.28
2023-02-02T19:34:03.622Z,5.22
2023-02-02T19:37:26.373Z,4.85
2023-02-02T19:40:29.139Z,5.15
2023-02-02T19:46:42.020Z,7.90
2023-02-02T19:49:45.269Z,7.18
2023-02-02T19:52:49.725Z,19.10
2023-02-02T19:55:52.996Z,6.45
2023-02-02T19:58:55.682Z,3.83
2023-02-02T20:02:03.736Z,4.22
2023-02-02T20:05:17.545Z,7.65
2023-02-02T20:08:38.284Z,7.15
2023-02-02T20:11:44.364Z,5.62
2023-02-02T20:14:48.157Z,6.18
2023-02-02T20:17:54.439Z,9.05
2023-02-02T20:20:58.088Z,5.75
2023-02-02T20:24:01.295Z,6.50
2023-02-02T20:30:30.879Z,7.50
2023-02-02T20:33:34.201Z,6.20
2023-02-02T20:36:40.279Z,3.67
2023-02-02T20:40:07.823Z,5.25
2023-02-02T20:43:12.465Z,4.70
2023-02-02T20:46:16.205Z,4.55
2023-02-02T20:49:20.762Z,7.87
2023-02-02T20:52:24.169Z,7.90
2023-02-02T20:55:28.389Z,7.55
2023-02-02T20:58:31.769Z,4.82
2023-02-02T21:01:34.805Z,10.70
2023-02-02T21:04:39.021Z,8.30
2023-02-02T21:07:41.840Z,8.70
2023-02-02T21:10:44.621Z,5.85
2023-02-02T21:13:50.180Z,5.50
2023-02-02T21:17:02.369Z,5.50
2023-02-02T21:20:15.910Z,5.93
2023-02-02T21:23:18.798Z,5.15
2023-02-02T21:26:26.528Z,4.43
2023-02-02T21:29:31.418Z,7.35
2023-02-02T21:32:34.102Z,7.45
2023-02-02T21:35:37.706Z,4.30
2023-02-02T21:38:40.346Z,8.00
2023-02-02T21:41:43.887Z,6.30
2023-02-02T21:45:21.983Z,7.43
2023-02-02T21:48:32.841Z,9.38
2023-02-02T21:51:37.523Z,7.87
2023-02-02T21:54:41.113Z,7.75
2023-02-02T21:57:43.713Z,5.32
2023-02-02T22:00:47.265Z,5.57
2023-02-02T22:03:51.036Z,6.62
2023-02-02T22:07:00.666Z,5.12
2023-02-02T22:10:25.472Z,7.53
2023-02-02T22:13:34.881Z,7.15
2023-02-02T22:16:43.746Z,4.50
2023-02-02T22:19:46.942Z,4.25
2023-02-02T22:22:51.389Z,5.75
2023-02-02T22:25:58.545Z,5.53
2023-02-02T22:29:07.200Z,8.20
2023-02-02T22:32:10.023Z,5.00
2023-02-02T22:35:13.036Z,4.62
2023-02-02T22:38:18.234Z,7.60
2023-02-02T22:41:21.184Z,6.40
2023-02-02T22:44:24.082Z,4.12
2023-02-02T22:47:27.314Z,4.28
2023-02-02T22:50:31.708Z,4.30
2023-02-02T22:53:34.727Z,6.05
2023-02-02T22:56:37.784Z,8.02
2023-02-02T22:59:40.580Z,4.30
2023-02-02T23:02:43.979Z,4.35
2023-02-02T23:08:49.594Z,3.55
2023-02-02T23:11:52.599Z,4.53
2023-02-02T23:14:55.417Z,6.53
2023-02-02T23:17:58.313Z,5.10
2023-02-02T23:21:01.176Z,5.03
2023-02-02T23:24:04.292Z,4.97
2023-02-02T23:27:07.079Z,5.75
2023-02-02T23:30:11.763Z,6.75
2023-02-02T23:33:14.548Z,4.43
2023-02-02T23:36:24.638Z,6.90
2023-02-02T23:39:33.284Z,8.25
2023-02-02T23:42:42.086Z,7.12
2023-02-02T23:46:00.258Z,4.60
2023-02-02T23:49:03.415Z,4.57
2023-02-02T23:52:06.607Z,3.17
2023-02-02T23:55:10.190Z,4.55
2023-02-02T23:58:13.645Z,3.60
